createdAt,value
2018-12-01T00:00:29.135Z,27.30
2018-12-01T00:02:58.339Z,22.23
2018-12-01T00:05:27.264Z,23.80
2018-12-01T00:07:56.601Z,20.83
2018-12-01T00:10:25.573Z,22.37
2018-12-01T00:12:54.496Z,20.93
2018-12-01T00:15:28.165Z,18.47
2018-12-01T00:17:57.393Z,24.70
2018-12-01T00:20:32.885Z,19.27
2018-12-01T00:23:01.774Z,23.80
2018-12-01T00:25:30.678Z,23.93
2018-12-01T00:27:59.561Z,26.27
2018-12-01T00:30:28.429Z,21.47
2018-12-01T00:32:57.494Z,22.23
2018-12-01T00:35:26.387Z,19.23
2018-12-01T00:37:55.282Z,19.83
2018-12-01T00:40:24.753Z,23.30
2018-12-01T00:42:53.623Z,26.60
2018-12-01T00:45:23.463Z,20.37
2018-12-01T00:47:53.199Z,20.07
2018-12-01T00:50:24.624Z,18.53
2018-12-01T00:52:54.370Z,25.17
2018-12-01T00:55:23.364Z,21.87
2018-12-01T00:57:52.383Z,20.53
2018-12-01T01:00:25.057Z,23.33
2018-12-01T01:02:57.177Z,29.43
2018-12-01T01:05:27.320Z,23.63
2018-12-01T01:07:57.269Z,27.10
2018-12-01T01:10:28.892Z,25.90
2018-12-01T01:12:57.910Z,24.47
2018-12-01T01:15:26.902Z,20.10
2018-12-01T01:17:55.740Z,22.90
2018-12-01T01:20:25.041Z,21.70
2018-12-01T01:22:53.928Z,28.27
2018-12-01T01:25:22.899Z,25.70
2018-12-01T01:27:52.237Z,23.13
2018-12-01T01:30:23.306Z,22.73
2018-12-01T01:32:58.770Z,22.20
2018-12-01T01:35:27.700Z,26.30
2018-12-01T01:37:56.558Z,24.07
2018-12-01T01:40:25.410Z,22.07
2018-12-01T01:42:54.253Z,27.03
2018-12-01T01:45:23.415Z,26.43
2018-12-01T01:47:52.338Z,23.37
2018-12-01T01:50:21.800Z,25.60
2018-12-01T01:52:50.719Z,21.00
2018-12-01T01:55:19.645Z,25.53
2018-12-01T01:57:48.480Z,27.43
2018-12-01T02:00:20.826Z,25.30
2018-12-01T02:02:51.571Z,25.83
2018-12-01T02:05:23.310Z,24.53
2018-12-01T02:07:52.107Z,21.77
2018-12-01T02:10:21.662Z,27.77
2018-12-01T02:12:50.559Z,26.17
2018-12-01T02:15:19.473Z,27.97
2018-12-01T02:17:48.914Z,29.33
2018-12-01T02:20:18.268Z,27.60
2018-12-01T02:22:47.229Z,32.67
2018-12-01T02:25:17.135Z,28.33
2018-12-01T02:27:46.547Z,25.30
2018-12-01T02:30:18.988Z,26.43
2018-12-01T02:32:48.442Z,27.07
2018-12-01T02:35:22.754Z,29.43
2018-12-01T02:37:51.707Z,29.93
2018-12-01T02:40:20.596Z,30.17
2018-12-01T02:42:49.621Z,34.00
2018-12-01T02:46:34.870Z,31.43
2018-12-01T02:49:03.790Z,29.70
2018-12-01T02:51:32.656Z,29.37
2018-12-01T02:54:01.601Z,29.30
2018-12-01T02:56:30.401Z,31.53
2018-12-01T02:58:59.541Z,33.80
2018-12-01T03:01:28.463Z,29.93
2018-12-01T03:03:57.299Z,29.53
2018-12-01T03:06:26.188Z,27.73
2018-12-01T03:08:55.090Z,26.63
2018-12-01T03:11:23.956Z,30.90
2018-12-01T03:13:52.886Z,35.50
2018-12-01T03:16:22.034Z,28.03
2018-12-01T03:18:51.045Z,39.23
2018-12-01T03:21:19.884Z,32.13
2018-12-01T03:23:49.078Z,39.40
2018-12-01T03:26:17.939Z,41.30
2018-12-01T03:28:46.787Z,31.07
2018-12-01T03:31:15.724Z,28.67
2018-12-01T03:33:44.561Z,27.50
2018-12-01T03:36:13.435Z,32.47
2018-12-01T03:38:42.307Z,33.47
2018-12-01T03:41:11.142Z,33.93
2018-12-01T03:43:40.041Z,34.07
2018-12-01T03:46:08.913Z,32.83
2018-12-01T03:48:38.091Z,34.10
2018-12-01T03:51:07.010Z,31.77
2018-12-01T03:53:35.844Z,32.13
2018-12-01T03:56:05.069Z,33.07
2018-12-01T03:58:33.947Z,34.23
2018-12-01T04:01:02.858Z,36.87
2018-12-01T04:03:32.514Z,32.90
2018-12-01T04:06:01.654Z,39.03
2018-12-01T04:08:30.563Z,34.73
2018-12-01T04:10:59.455Z,38.73
2018-12-01T04:13:28.273Z,39.03
2018-12-01T04:15:57.277Z,38.77
2018-12-01T04:18:26.139Z,33.37
2018-12-01T04:20:55.182Z,43.13
2018-12-01T04:23:24.004Z,39.00
2018-12-01T04:25:52.894Z,35.90
2018-12-01T04:28:21.838Z,33.60
2018-12-01T04:30:50.712Z,38.17
2018-12-01T04:33:19.759Z,37.40
2018-12-01T04:35:48.591Z,32.80
2018-12-01T04:38:17.458Z,38.90
2018-12-01T04:40:46.325Z,38.50
2018-12-01T04:43:15.219Z,37.57
2018-12-01T04:45:44.246Z,35.17
2018-12-01T04:48:13.103Z,40.97
2018-12-01T04:50:42.008Z,46.93
2018-12-01T04:53:10.919Z,44.43
2018-12-01T04:55:39.763Z,40.77
2018-12-01T04:58:08.731Z,42.27
2018-12-01T05:00:37.604Z,31.37
2018-12-01T05:03:06.490Z,39.03
2018-12-01T05:05:35.318Z,40.17
2018-12-01T05:08:04.231Z,42.80
2018-12-01T05:10:33.157Z,48.40
2018-12-01T05:13:02.298Z,41.80
2018-12-01T05:15:31.126Z,38.13
2018-12-01T05:18:00.018Z,38.10
2018-12-01T05:20:28.871Z,38.87
2018-12-01T05:22:57.926Z,37.60
2018-12-01T05:25:26.715Z,35.00
2018-12-01T05:27:55.667Z,38.33
2018-12-01T05:30:24.507Z,41.03
2018-12-01T05:32:53.420Z,32.23
2018-12-01T05:35:23.963Z,42.30
2018-12-01T05:37:52.874Z,38.53
2018-12-01T05:40:22.091Z,41.23
2018-12-01T05:42:51.053Z,40.53
2018-12-01T05:45:22.187Z,32.70
2018-12-01T05:47:51.891Z,40.63
2018-12-01T05:50:21.685Z,41.57
2018-12-01T05:52:51.594Z,40.43
2018-12-01T05:55:20.539Z,36.90
2018-12-01T05:57:49.456Z,39.23
2018-12-01T06:00:18.670Z,35.97
2018-12-01T06:02:47.517Z,36.80
2018-12-01T06:05:16.479Z,36.30
2018-12-01T06:07:45.679Z,31.67
2018-12-01T06:10:18.907Z,37.73
2018-12-01T06:12:48.823Z,38.80
2018-12-01T06:15:18.653Z,38.83
2018-12-01T06:17:47.484Z,36.70
2018-12-01T06:20:21.225Z,36.90
2018-12-01T06:22:50.145Z,33.53
2018-12-01T06:25:20.770Z,38.77
2018-12-01T06:27:49.600Z,37.30
2018-12-01T06:30:20.227Z,33.07
2018-12-01T06:32:51.455Z,33.07
2018-12-01T06:35:20.409Z,37.53
2018-12-01T06:37:49.372Z,38.07
2018-12-01T06:40:20.551Z,34.63
2018-12-01T06:42:49.919Z,32.40
2018-12-01T06:45:18.935Z,31.40
2018-12-01T06:47:48.155Z,32.53
2018-12-01T06:50:23.631Z,34.17
2018-12-01T06:52:53.633Z,34.47
2018-12-01T06:55:23.512Z,32.90
2018-12-01T06:57:52.517Z,32.73
2018-12-01T07:00:23.956Z,33.17
2018-12-01T07:02:54.361Z,35.97
2018-12-01T07:05:23.239Z,36.87
2018-12-01T07:07:52.159Z,35.13
2018-12-01T07:10:22.554Z,31.03
2018-12-01T07:12:59.543Z,35.93
2018-12-01T07:15:32.208Z,33.63
2018-12-01T07:18:01.135Z,35.97
2018-12-01T07:20:30.182Z,32.83
2018-12-01T07:22:59.099Z,30.87
2018-12-01T07:25:27.942Z,31.37
2018-12-01T07:27:56.806Z,32.80
2018-12-01T07:30:25.695Z,29.93
2018-12-01T07:32:54.652Z,31.53
2018-12-01T07:35:23.474Z,31.03
2018-12-01T07:37:52.434Z,26.47
2018-12-01T07:40:21.611Z,28.13
2018-12-01T07:42:50.577Z,32.57
2018-12-01T07:45:19.467Z,31.33
2018-12-01T07:47:48.409Z,30.67
2018-12-01T07:50:18.282Z,33.53
2018-12-01T07:52:51.853Z,30.13
2018-12-01T07:55:21.083Z,34.70
2018-12-01T07:57:49.936Z,35.77
2018-12-01T08:00:18.876Z,32.93
2018-12-01T08:02:49.299Z,32.60
2018-12-01T08:05:18.262Z,32.73
2018-12-01T08:07:47.223Z,31.27
2018-12-01T08:10:16.819Z,30.80
2018-12-01T08:12:45.642Z,27.17
2018-12-01T08:15:16.005Z,31.83
2018-12-01T08:17:46.000Z,30.47
2018-12-01T08:20:16.273Z,31.93
2018-12-01T08:22:45.203Z,35.37
2018-12-01T08:25:15.804Z,31.90
2018-12-01T08:27:45.666Z,33.57
2018-12-01T08:30:21.793Z,28.97
2018-12-01T08:32:51.433Z,29.47
2018-12-01T08:35:20.800Z,32.27
2018-12-01T08:37:49.620Z,37.33
2018-12-01T08:40:20.610Z,31.30
2018-12-01T08:42:49.462Z,30.43
2018-12-01T08:45:18.471Z,31.07
2018-12-01T08:47:47.610Z,28.77
2018-12-01T08:50:18.454Z,29.73
2018-12-01T08:52:47.382Z,30.00
2018-12-01T08:55:20.752Z,24.20
2018-12-01T08:57:50.463Z,31.33
2018-12-01T09:00:39.290Z,30.27
2018-12-01T09:03:23.916Z,32.83
2018-12-01T09:05:53.503Z,24.87
2018-12-01T09:08:22.485Z,25.87
2018-12-01T09:10:51.390Z,31.63
2018-12-01T09:13:20.308Z,27.10
2018-12-01T09:15:49.134Z,37.63
2018-12-01T09:18:18.006Z,34.23
2018-12-01T09:20:47.266Z,28.90
2018-12-01T09:23:16.153Z,33.07
2018-12-01T09:25:45.003Z,36.17
2018-12-01T09:28:13.891Z,31.97
2018-12-01T09:30:43.065Z,32.23
2018-12-01T09:33:12.045Z,33.00
2018-12-01T09:35:40.886Z,34.17
2018-12-01T09:38:09.768Z,33.13
2018-12-01T09:40:38.591Z,37.47
2018-12-01T09:43:07.795Z,29.93
2018-12-01T09:45:36.702Z,61.87
2018-12-01T09:48:05.679Z,31.40
2018-12-01T09:50:34.518Z,26.50
2018-12-01T09:53:03.426Z,34.23
2018-12-01T09:55:32.643Z,32.77
2018-12-01T09:58:01.521Z,23.63
2018-12-01T10:00:31.978Z,24.73
2018-12-01T10:03:03.757Z,27.20
2018-12-01T10:05:33.425Z,23.43
2018-12-01T10:08:02.338Z,22.33
2018-12-01T10:10:31.281Z,26.60
2018-12-01T10:13:00.191Z,22.10
2018-12-01T10:15:33.469Z,24.73
2018-12-01T10:18:02.403Z,24.23
2018-12-01T10:20:33.311Z,20.33
2018-12-01T10:23:05.876Z,18.33
2018-12-01T10:25:34.778Z,25.77
2018-12-01T10:28:03.659Z,23.80
2018-12-01T10:30:32.625Z,18.73
2018-12-01T10:33:01.509Z,21.17
2018-12-01T10:35:30.407Z,19.30
2018-12-01T10:38:08.774Z,20.43
2018-12-01T10:40:37.791Z,20.53
2018-12-01T10:43:07.405Z,23.90
2018-12-01T10:45:36.344Z,22.47
2018-12-01T10:48:06.706Z,15.63
2018-12-01T10:50:35.605Z,22.63
2018-12-01T10:53:04.900Z,22.53
2018-12-01T10:55:34.706Z,15.67
2018-12-01T10:58:34.530Z,23.80
2018-12-01T11:01:09.096Z,18.20
2018-12-01T11:03:44.429Z,19.63
2018-12-01T11:06:15.130Z,20.23
2018-12-01T11:08:44.046Z,21.67
2018-12-01T11:11:12.971Z,26.23
2018-12-01T11:13:41.901Z,19.43
2018-12-01T11:16:11.462Z,22.13
2018-12-01T11:18:40.327Z,22.07
2018-12-01T11:21:09.268Z,16.50
2018-12-01T11:23:38.121Z,22.87
2018-12-01T11:26:07.159Z,17.03
2018-12-01T11:28:36.090Z,18.43
2018-12-01T11:31:05.182Z,19.43
2018-12-01T11:33:34.145Z,18.50
2018-12-01T11:36:03.211Z,19.70
2018-12-01T11:38:32.179Z,19.90
2018-12-01T11:41:01.094Z,17.60
2018-12-01T11:43:29.928Z,17.93
2018-12-01T11:45:58.878Z,15.97
2018-12-01T11:48:27.756Z,22.93
2018-12-01T11:50:56.840Z,17.70
2018-12-01T11:53:25.708Z,18.43
2018-12-01T11:55:54.710Z,21.57
2018-12-01T11:58:23.545Z,20.40
2018-12-01T12:00:52.437Z,20.90
2018-12-01T12:03:21.404Z,19.27
2018-12-01T12:05:50.289Z,22.13
2018-12-01T12:08:21.306Z,21.30
2018-12-01T12:10:50.330Z,22.20
2018-12-01T12:13:20.288Z,18.80
2018-12-01T12:15:49.822Z,19.83
2018-12-01T12:18:18.819Z,17.03
2018-12-01T12:20:47.752Z,17.00
2018-12-01T12:23:16.940Z,21.20
2018-12-01T12:25:45.626Z,19.30
2018-12-01T12:28:14.702Z,24.20
2018-12-01T12:30:43.924Z,19.97
2018-12-01T12:33:12.843Z,20.07
2018-12-01T12:35:41.768Z,19.43
2018-12-01T12:38:10.689Z,17.73
2018-12-01T12:40:39.579Z,22.07
2018-12-01T12:43:08.539Z,17.37
2018-12-01T12:45:37.465Z,12.73
2018-12-01T12:48:07.807Z,22.43
2018-12-01T12:50:37.023Z,18.23
2018-12-01T12:53:06.246Z,16.90
2018-12-01T12:55:35.104Z,16.90
2018-12-01T12:58:04.213Z,14.27
2018-12-01T13:00:33.039Z,18.20
2018-12-01T13:03:09.350Z,13.07
2018-12-01T13:05:42.149Z,11.20
2018-12-01T13:08:12.698Z,15.47
2018-12-01T13:10:41.551Z,15.40
2018-12-01T13:13:10.764Z,15.93
2018-12-01T13:15:40.097Z,13.67
2018-12-01T13:18:13.663Z,16.73
2018-12-01T13:20:44.694Z,14.27
2018-12-01T13:23:13.660Z,17.80
2018-12-01T13:25:42.984Z,13.90
2018-12-01T13:28:22.674Z,13.33
2018-12-01T13:30:58.178Z,13.97
2018-12-01T13:33:27.319Z,13.03
2018-12-01T13:35:57.335Z,18.53
2018-12-01T13:38:26.908Z,11.43
2018-12-01T13:40:55.783Z,16.07
2018-12-01T13:43:24.760Z,14.40
2018-12-01T13:45:53.637Z,10.40
2018-12-01T13:48:22.641Z,13.10
2018-12-01T13:50:51.529Z,10.87
2018-12-01T13:53:20.498Z,17.97
2018-12-01T13:55:49.405Z,12.33
2018-12-01T13:58:18.303Z,10.40
2018-12-01T14:00:47.216Z,14.03
2018-12-01T14:03:16.117Z,14.00
2018-12-01T14:05:45.422Z,15.57
2018-12-01T14:08:14.399Z,10.17
2018-12-01T14:10:48.298Z,11.00
2018-12-01T14:13:17.298Z,13.43
2018-12-01T14:15:46.523Z,10.13
2018-12-01T14:18:15.626Z,10.40
2018-12-01T14:20:44.495Z,12.63
2018-12-01T14:23:13.390Z,12.33
2018-12-01T14:25:42.532Z,14.50
2018-12-01T14:28:12.474Z,9.90
2018-12-01T14:30:41.467Z,12.70
2018-12-01T14:33:11.777Z,11.80
2018-12-01T14:35:41.302Z,8.60
2018-12-01T14:38:17.160Z,10.63
2018-12-01T14:40:49.196Z,12.00
2018-12-01T14:43:18.137Z,9.27
2018-12-01T14:45:48.680Z,8.87
2018-12-01T14:48:17.776Z,6.67
2018-12-01T14:50:48.720Z,12.97
2018-12-01T14:53:17.298Z,9.93
2018-12-01T14:55:46.237Z,7.10
2018-12-01T14:58:15.338Z,7.53
2018-12-01T15:00:44.634Z,12.13
2018-12-01T15:03:13.990Z,10.57
2018-12-01T15:05:42.924Z,10.30
2018-12-01T15:08:11.997Z,9.70
2018-12-01T15:10:40.920Z,11.67
2018-12-01T15:13:09.837Z,9.47
2018-12-01T15:15:38.702Z,7.67
2018-12-01T15:18:07.572Z,15.43
2018-12-01T15:20:36.493Z,15.07
2018-12-01T15:23:06.719Z,16.37
2018-12-01T15:25:36.215Z,12.37
2018-12-01T15:28:06.414Z,18.57
2018-12-01T15:30:35.348Z,10.97
2018-12-01T15:33:08.463Z,12.83
2018-12-01T15:35:38.982Z,14.97
2018-12-01T15:38:09.273Z,16.80
2018-12-01T15:40:41.337Z,13.00
2018-12-01T15:43:10.222Z,14.67
2018-12-01T15:45:39.223Z,21.37
2018-12-01T15:48:08.422Z,17.07
2018-12-01T15:50:37.454Z,20.40
2018-12-01T15:53:10.884Z,34.60
2018-12-01T15:55:40.302Z,43.53
2018-12-01T15:58:09.711Z,28.27
2018-12-01T16:00:39.682Z,11.73
2018-12-01T16:03:08.559Z,13.93
2018-12-01T16:05:37.466Z,12.83
2018-12-01T16:08:08.396Z,12.17
2018-12-01T16:10:37.428Z,19.33
2018-12-01T16:13:16.722Z,20.23
2018-12-01T16:15:52.831Z,11.10
2018-12-01T16:18:21.786Z,14.90
2018-12-01T16:20:50.764Z,11.43
2018-12-01T16:23:19.677Z,9.70
2018-12-01T16:25:48.666Z,13.67
2018-12-01T16:28:17.494Z,21.47
2018-12-01T16:30:46.766Z,27.83
2018-12-01T16:33:20.587Z,23.57
2018-12-01T16:35:50.630Z,22.67
2018-12-01T16:38:22.435Z,17.77
2018-12-01T16:40:55.550Z,13.50
2018-12-01T16:43:25.246Z,15.67
2018-12-01T16:45:54.344Z,15.77
2018-12-01T16:48:23.219Z,15.10
2018-12-01T16:50:52.252Z,13.73
2018-12-01T16:53:22.429Z,16.43
2018-12-01T16:55:51.675Z,12.80
2018-12-01T16:58:20.546Z,17.10
2018-12-01T17:00:49.419Z,18.83
2018-12-01T17:03:18.323Z,17.37
2018-12-01T17:05:56.135Z,17.10
2018-12-01T17:08:25.055Z,18.57
2018-12-01T17:10:53.970Z,12.00
2018-12-01T17:13:22.888Z,12.07
2018-12-01T17:15:51.922Z,10.07
2018-12-01T17:18:20.757Z,8.53
2018-12-01T17:20:49.816Z,10.83
2018-12-01T17:23:18.644Z,11.10
2018-12-01T17:25:47.803Z,10.00
2018-12-01T17:28:18.820Z,12.43
2018-12-01T17:30:48.320Z,12.07
2018-12-01T17:33:17.435Z,12.57
2018-12-01T17:35:46.285Z,13.17
2018-12-01T17:38:20.111Z,14.27
2018-12-01T17:41:18.759Z,14.07
2018-12-01T17:43:53.474Z,7.97
2018-12-01T17:46:22.357Z,10.43
2018-12-01T17:48:51.565Z,13.10
2018-12-01T17:51:20.502Z,11.23
2018-12-01T17:53:54.286Z,15.70
2018-12-01T17:56:24.019Z,15.50
2018-12-01T17:58:52.927Z,17.23
2018-12-01T18:01:21.797Z,15.63
2018-12-01T18:03:51.055Z,11.87
2018-12-01T18:06:19.991Z,11.13
2018-12-01T18:08:49.150Z,11.40
2018-12-01T18:11:17.994Z,13.10
2018-12-01T18:13:46.863Z,8.50
2018-12-01T18:16:15.730Z,8.60
2018-12-01T18:18:44.672Z,8.30
2018-12-01T18:21:13.537Z,10.23
2018-12-01T18:23:42.690Z,13.07
2018-12-01T18:26:11.588Z,7.30
2018-12-01T18:28:47.349Z,9.17
2018-12-01T18:31:24.095Z,7.37
2018-12-01T18:34:14.410Z,9.53
2018-12-01T18:36:44.536Z,9.77
2018-12-01T18:39:16.963Z,7.07
2018-12-01T18:41:45.833Z,7.63
2018-12-01T18:44:14.765Z,7.50
2018-12-01T18:46:43.899Z,8.27
2018-12-01T18:49:12.806Z,7.70
2018-12-01T18:51:42.038Z,6.83
2018-12-01T18:54:11.032Z,7.60
2018-12-01T18:56:39.920Z,9.43
2018-12-01T18:59:09.140Z,9.30
2018-12-01T19:01:38.457Z,10.37
2018-12-01T19:04:08.334Z,7.20
2018-12-01T19:06:37.706Z,9.27
2018-12-01T19:09:08.124Z,6.57
2018-12-01T19:11:36.984Z,8.13
2018-12-01T19:14:06.924Z,9.43
2018-12-01T19:16:35.885Z,7.57
2018-12-01T19:19:04.958Z,10.03
2018-12-01T19:21:33.742Z,7.53
2018-12-01T19:24:02.629Z,8.57
2018-12-01T19:26:31.449Z,8.00
2018-12-01T19:29:00.746Z,9.13
2018-12-01T19:31:29.899Z,11.10
2018-12-01T19:33:58.815Z,6.33
2018-12-01T19:36:27.643Z,7.67
2018-12-01T19:38:56.531Z,6.40
2018-12-01T19:41:25.485Z,7.87
2018-12-01T19:43:54.510Z,8.50
2018-12-01T19:46:23.412Z,8.43
2018-12-01T19:48:52.268Z,8.73
2018-12-01T19:51:21.407Z,7.27
2018-12-01T19:53:50.407Z,7.93
2018-12-01T19:56:19.223Z,11.37
2018-12-01T19:58:48.085Z,7.60
2018-12-01T20:01:16.947Z,10.43
2018-12-01T20:03:45.932Z,7.70
2018-12-01T20:06:14.881Z,8.50
2018-12-01T20:08:47.332Z,8.00
2018-12-01T20:11:16.217Z,7.87
2018-12-01T20:13:46.005Z,10.80
2018-12-01T20:16:37.269Z,9.60
2018-12-01T20:19:07.500Z,10.90
2018-12-01T20:21:36.425Z,7.37
2018-12-01T20:24:06.884Z,10.00
2018-12-01T20:26:36.190Z,7.53
2018-12-01T20:29:05.882Z,7.40
2018-12-01T20:31:34.799Z,11.60
2018-12-01T20:34:04.114Z,11.40
2018-12-01T20:36:45.210Z,8.20
2018-12-01T20:39:19.641Z,8.47
2018-12-01T20:41:48.499Z,8.03
2018-12-01T20:44:17.384Z,9.93
2018-12-01T20:46:46.235Z,12.43
2018-12-01T20:49:15.054Z,8.90
2018-12-01T20:51:43.934Z,6.90
2018-12-01T20:54:24.991Z,12.77
2018-12-01T20:57:00.384Z,9.20
2018-12-01T20:59:29.323Z,9.60
2018-12-01T21:01:58.209Z,13.47
2018-12-01T21:04:27.557Z,5.97
2018-12-01T21:06:56.437Z,6.80
2018-12-01T21:09:25.293Z,8.27
2018-12-01T21:11:54.222Z,10.27
2018-12-01T21:14:23.094Z,6.03
2018-12-01T21:16:52.073Z,9.73
2018-12-01T21:19:20.923Z,9.60
2018-12-01T21:21:50.453Z,5.70
2018-12-01T21:24:19.788Z,7.73
2018-12-01T21:26:48.670Z,7.57
2018-12-01T21:29:17.603Z,7.67
2018-12-01T21:31:46.507Z,8.60
2018-12-01T21:34:16.259Z,6.73
2018-12-01T21:36:45.196Z,10.37
2018-12-01T21:39:14.063Z,5.93
2018-12-01T21:41:43.054Z,9.43
2018-12-01T21:44:11.921Z,7.90
2018-12-01T21:46:40.794Z,6.07
2018-12-01T21:49:09.672Z,7.00
2018-12-01T21:51:38.594Z,8.30
2018-12-01T21:54:07.665Z,7.50
2018-12-01T21:56:36.598Z,7.53
2018-12-01T21:59:05.480Z,7.13
2018-12-01T22:01:34.427Z,8.23
2018-12-01T22:04:03.246Z,6.27
2018-12-01T22:06:32.162Z,6.97
2018-12-01T22:09:01.540Z,6.57
2018-12-01T22:11:30.467Z,5.00
2018-12-01T22:13:59.254Z,6.10
2018-12-01T22:16:28.139Z,8.30
2018-12-01T22:18:57.132Z,8.87
2018-12-01T22:21:26.025Z,8.70
2018-12-01T22:23:54.988Z,6.13
2018-12-01T22:26:23.875Z,7.67
2018-12-01T22:28:52.714Z,6.07
2018-12-01T22:31:21.662Z,7.27
2018-12-01T22:33:50.493Z,6.60
2018-12-01T22:36:19.425Z,4.50
2018-12-01T22:38:48.242Z,6.27
2018-12-01T22:41:17.690Z,6.43
2018-12-01T22:43:46.854Z,6.70
2018-12-01T22:46:15.772Z,6.00
2018-12-01T22:48:44.622Z,7.97
2018-12-01T22:51:13.505Z,4.30
2018-12-01T22:53:44.185Z,7.63
2018-12-01T22:56:13.499Z,4.30
2018-12-01T22:58:46.409Z,6.23
2018-12-01T23:01:17.461Z,5.17
2018-12-01T23:03:47.826Z,6.00
2018-12-01T23:06:19.151Z,9.40
2018-12-01T23:08:51.684Z,6.77
2018-12-01T23:11:21.447Z,8.63
2018-12-01T23:13:50.678Z,5.67
2018-12-01T23:16:20.069Z,5.73
2018-12-01T23:18:49.173Z,6.50
2018-12-01T23:21:20.668Z,6.00
2018-12-01T23:23:47.504Z,7.17
2018-12-01T23:26:16.401Z,5.73
2018-12-01T23:28:45.877Z,6.20
2018-12-01T23:31:14.760Z,7.13
2018-12-01T23:33:43.676Z,5.33
2018-12-01T23:36:12.571Z,6.90
2018-12-01T23:38:41.508Z,7.80
2018-12-01T23:41:10.518Z,7.20
2018-12-01T23:43:39.648Z,6.17
2018-12-01T23:46:08.647Z,5.40
2018-12-01T23:48:37.604Z,6.33
2018-12-01T23:51:06.965Z,6.07
2018-12-01T23:53:35.975Z,5.13
2018-12-01T23:56:05.279Z,3.53
2018-12-01T23:58:34.183Z,5.30
